createdAt,value
2022-08-28T00:00:06.215Z,17.30
2022-08-28T00:00:16.284Z,17.50
2022-08-28T00:00:26.411Z,18.20
2022-08-28T00:00:36.491Z,20.10
2022-08-28T00:00:46.594Z,20.60
2022-08-28T00:00:56.663Z,23.70
2022-08-28T00:01:06.751Z,20.70
2022-08-28T00:01:16.825Z,19.00
2022-08-28T00:01:26.905Z,16.70
2022-08-28T00:01:36.983Z,18.10
2022-08-28T00:01:47.072Z,19.00
2022-08-28T00:01:57.159Z,18.40
2022-08-28T00:02:07.245Z,18.30
2022-08-28T00:02:17.336Z,20.10
2022-08-28T00:02:27.488Z,20.80
2022-08-28T00:02:37.496Z,23.10
2022-08-28T00:02:47.639Z,21.70
2022-08-28T00:02:57.804Z,19.40
2022-08-28T00:03:07.961Z,18.60
2022-08-28T00:03:18.074Z,17.90
2022-08-28T00:03:28.154Z,20.80
2022-08-28T00:03:38.502Z,20.60
2022-08-28T00:03:48.357Z,20.00
2022-08-28T00:03:58.515Z,18.40
2022-08-28T00:04:08.625Z,17.80
2022-08-28T00:04:18.742Z,21.00
2022-08-28T00:04:28.847Z,22.30
2022-08-28T00:04:38.982Z,23.10
2022-08-28T00:04:49.126Z,24.10
2022-08-28T00:04:59.274Z,22.40
2022-08-28T00:05:09.440Z,21.00
2022-08-28T00:05:19.418Z,16.60
2022-08-28T00:05:29.526Z,19.30
2022-08-28T00:05:39.733Z,21.70
2022-08-28T00:05:49.745Z,22.80
2022-08-28T00:05:59.822Z,19.20
2022-08-28T00:06:09.892Z,17.00
2022-08-28T00:06:19.970Z,17.60
2022-08-28T00:06:30.033Z,20.00
2022-08-28T00:06:40.115Z,20.80
2022-08-28T00:06:50.254Z,21.20
2022-08-28T00:07:00.358Z,19.90
2022-08-28T00:07:10.435Z,21.40
2022-08-28T00:07:20.514Z,20.90
2022-08-28T00:07:30.594Z,22.10
2022-08-28T00:07:44.318Z,19.40
2022-08-28T00:07:51.625Z,18.10
2022-08-28T00:08:01.716Z,18.20
2022-08-28T00:08:11.895Z,19.30
2022-08-28T00:08:21.926Z,20.00
2022-08-28T00:08:32.005Z,19.80
2022-08-28T00:08:42.165Z,17.40
2022-08-28T00:08:52.315Z,17.90
2022-08-28T00:09:02.395Z,19.00
2022-08-28T00:09:12.484Z,19.40
2022-08-28T00:09:22.578Z,18.00
2022-08-28T00:09:32.654Z,16.60
2022-08-28T00:09:42.766Z,19.20
2022-08-28T00:09:52.844Z,18.80
2022-08-28T00:10:02.935Z,19.20
2022-08-28T00:10:13.042Z,19.20
2022-08-28T00:10:23.124Z,22.00
2022-08-28T00:10:33.204Z,23.90
2022-08-28T00:10:43.293Z,23.00
2022-08-28T00:10:53.373Z,20.80
2022-08-28T00:11:03.487Z,19.40
2022-08-28T00:11:13.554Z,18.90
2022-08-28T00:11:23.625Z,20.70
2022-08-28T00:11:33.714Z,20.80
2022-08-28T00:11:43.831Z,20.60
2022-08-28T00:11:53.955Z,18.60
2022-08-28T00:12:04.044Z,18.30
2022-08-28T00:12:14.134Z,18.00
2022-08-28T00:12:24.225Z,18.90
2022-08-28T00:12:34.314Z,16.60
2022-08-28T00:12:44.406Z,17.90
2022-08-28T00:12:54.485Z,17.30
2022-08-28T00:13:04.604Z,18.50
2022-08-28T00:13:14.684Z,17.90
2022-08-28T00:13:24.765Z,18.30
2022-08-28T00:13:34.854Z,20.40
2022-08-28T00:13:44.949Z,18.50
2022-08-28T00:13:56.729Z,19.60
2022-08-28T00:14:05.153Z,16.20
2022-08-28T00:14:15.233Z,15.60
2022-08-28T00:14:25.325Z,15.80
2022-08-28T00:14:35.405Z,17.00
2022-08-28T00:14:45.532Z,18.50
2022-08-28T00:14:55.595Z,19.50
2022-08-28T00:15:05.683Z,19.50
2022-08-28T00:15:15.814Z,19.80
2022-08-28T00:15:25.894Z,18.70
2022-08-28T00:15:35.985Z,19.30
2022-08-28T00:15:46.092Z,21.70
2022-08-28T00:15:56.293Z,22.80
2022-08-28T00:16:06.354Z,22.00
2022-08-28T00:16:16.515Z,19.00
2022-08-28T00:16:26.608Z,17.80
2022-08-28T00:16:36.595Z,19.10
2022-08-28T00:16:46.675Z,18.80
2022-08-28T00:16:56.774Z,18.40
2022-08-28T00:17:06.855Z,18.50
2022-08-28T00:17:16.932Z,18.60
2022-08-28T00:17:27.025Z,20.70
2022-08-28T00:17:37.104Z,24.60
2022-08-28T00:17:47.194Z,25.50
2022-08-28T00:17:57.273Z,24.80
2022-08-28T00:18:07.334Z,20.90
2022-08-28T00:18:17.417Z,19.60
2022-08-28T00:18:27.484Z,19.20
2022-08-28T00:18:37.574Z,18.50
2022-08-28T00:18:47.634Z,18.80
2022-08-28T00:18:57.775Z,18.10
2022-08-28T00:19:07.864Z,17.70
2022-08-28T00:19:17.947Z,17.10
2022-08-28T00:19:28.034Z,18.40
2022-08-28T00:19:38.925Z,17.50
2022-08-28T00:19:48.325Z,18.20
2022-08-28T00:19:58.404Z,19.50
2022-08-28T00:20:08.484Z,20.70
2022-08-28T00:20:18.575Z,19.70
2022-08-28T00:20:28.663Z,21.00
2022-08-28T00:20:38.745Z,20.60
2022-08-28T00:20:48.824Z,21.00
2022-08-28T00:20:58.915Z,18.70
2022-08-28T00:21:08.999Z,16.90
2022-08-28T00:21:19.092Z,17.10
2022-08-28T00:21:29.155Z,19.40
2022-08-28T00:21:39.250Z,21.20
2022-08-28T00:21:49.314Z,23.10
2022-08-28T00:21:59.396Z,20.50
2022-08-28T00:22:09.465Z,18.80
2022-08-28T00:22:19.542Z,16.00
2022-08-28T00:22:29.624Z,14.40
2022-08-28T00:22:39.704Z,15.00
2022-08-28T00:22:49.815Z,18.20
2022-08-28T00:22:59.972Z,20.40
2022-08-28T00:23:10.074Z,20.60
2022-08-28T00:23:20.156Z,18.00
2022-08-28T00:23:36.925Z,16.10
2022-08-28T00:23:42.858Z,15.20
2022-08-28T00:23:51.224Z,19.20
2022-08-28T00:24:01.344Z,20.40
2022-08-28T00:24:11.423Z,21.60
2022-08-28T00:24:21.514Z,19.30
2022-08-28T00:24:31.606Z,18.30
2022-08-28T00:24:41.714Z,18.20
2022-08-28T00:24:51.833Z,19.20
2022-08-28T00:25:01.944Z,18.70
2022-08-28T00:25:12.114Z,18.80
2022-08-28T00:25:22.203Z,19.10
2022-08-28T00:25:32.304Z,18.50
2022-08-28T00:25:42.411Z,17.10
2022-08-28T00:25:52.473Z,14.50
2022-08-28T00:26:02.554Z,15.80
2022-08-28T00:26:12.633Z,15.40
2022-08-28T00:26:22.734Z,14.30
2022-08-28T00:26:32.863Z,15.30
2022-08-28T00:26:42.924Z,16.50
2022-08-28T00:26:52.999Z,19.00
2022-08-28T00:27:03.054Z,19.00
2022-08-28T00:27:13.142Z,17.90
2022-08-28T00:27:23.252Z,17.20
2022-08-28T00:27:33.334Z,16.00
2022-08-28T00:27:43.411Z,15.80
2022-08-28T00:27:53.485Z,15.00
2022-08-28T00:28:05.182Z,17.60
2022-08-28T00:28:23.605Z,16.40
2022-08-28T00:28:24.685Z,16.50
2022-08-28T00:28:34.625Z,15.20
2022-08-28T00:28:44.772Z,15.30
2022-08-28T00:28:54.855Z,14.70
2022-08-28T00:29:04.964Z,12.30
2022-08-28T00:29:15.093Z,13.60
2022-08-28T00:29:25.492Z,14.60
2022-08-28T00:29:35.275Z,14.50
2022-08-28T00:29:45.354Z,14.00
2022-08-28T00:29:55.414Z,15.80
2022-08-28T00:30:05.504Z,15.70
2022-08-28T00:30:15.612Z,17.60
2022-08-28T00:30:25.733Z,15.40
2022-08-28T00:30:35.823Z,16.80
2022-08-28T00:30:45.914Z,14.50
2022-08-28T00:30:56.105Z,14.30
2022-08-28T00:31:06.044Z,16.00
2022-08-28T00:31:16.205Z,16.00
2022-08-28T00:31:26.332Z,17.10
2022-08-28T00:31:36.466Z,15.70
2022-08-28T00:31:46.530Z,16.10
2022-08-28T00:31:56.604Z,14.00
2022-08-28T00:32:06.734Z,13.00
2022-08-28T00:32:16.816Z,14.50
2022-08-28T00:32:26.893Z,15.70
2022-08-28T00:32:36.961Z,16.40
2022-08-28T00:32:47.046Z,14.00
2022-08-28T00:32:57.160Z,13.50
2022-08-28T00:33:07.216Z,12.40
2022-08-28T00:33:17.285Z,12.60
2022-08-28T00:33:27.383Z,11.90
2022-08-28T00:33:37.501Z,16.00
2022-08-28T00:33:48.254Z,17.40
2022-08-28T00:33:57.675Z,16.80
2022-08-28T00:34:07.754Z,14.50
2022-08-28T00:34:17.845Z,13.90
2022-08-28T00:34:32.070Z,14.90
2022-08-28T00:34:38.894Z,14.20
2022-08-28T00:34:48.955Z,13.70
2022-08-28T00:34:59.033Z,14.00
2022-08-28T00:35:09.333Z,14.10
2022-08-28T00:35:19.244Z,14.00
2022-08-28T00:35:29.364Z,16.20
2022-08-28T00:35:39.454Z,15.30
2022-08-28T00:35:49.546Z,15.30
2022-08-28T00:35:59.623Z,14.50
2022-08-28T00:36:09.715Z,15.50
2022-08-28T00:36:19.797Z,14.50
2022-08-28T00:36:29.864Z,12.90
2022-08-28T00:36:39.942Z,11.00
2022-08-28T00:36:50.034Z,10.40
2022-08-28T00:37:00.091Z,10.00
2022-08-28T00:37:10.154Z,11.60
2022-08-28T00:37:20.234Z,13.10
2022-08-28T00:37:30.472Z,14.10
2022-08-28T00:37:40.505Z,16.60
2022-08-28T00:37:50.574Z,16.60
2022-08-28T00:38:00.695Z,15.10
2022-08-28T00:38:10.995Z,12.60
2022-08-28T00:38:20.835Z,14.70
2022-08-28T00:38:30.903Z,16.40
2022-08-28T00:38:40.973Z,17.40
2022-08-28T00:38:51.004Z,14.80
2022-08-28T00:39:01.112Z,13.90
2022-08-28T00:39:11.184Z,13.50
2022-08-28T00:39:21.305Z,14.60
2022-08-28T00:39:31.423Z,16.40
2022-08-28T00:39:41.584Z,15.90
2022-08-28T00:39:51.704Z,16.10
2022-08-28T00:40:01.684Z,13.60
2022-08-28T00:40:11.824Z,14.10
2022-08-28T00:40:28.925Z,15.30
2022-08-28T00:40:33.841Z,18.70
2022-08-28T00:40:42.956Z,18.00
2022-08-28T00:40:52.895Z,15.50
2022-08-28T00:41:03.853Z,12.70
2022-08-28T00:41:13.228Z,12.70
2022-08-28T00:41:24.749Z,11.90
2022-08-28T00:41:33.532Z,11.10
2022-08-28T00:41:43.594Z,11.60
2022-08-28T00:41:56.687Z,12.00
2022-08-28T00:42:03.823Z,12.30
2022-08-28T00:42:13.912Z,13.80
2022-08-28T00:42:23.991Z,15.30
2022-08-28T00:42:34.104Z,16.10
2022-08-28T00:42:44.173Z,14.70
2022-08-28T00:42:54.294Z,13.60
2022-08-28T00:43:04.384Z,12.40
2022-08-28T00:43:14.461Z,14.30
2022-08-28T00:43:24.544Z,14.60
2022-08-28T00:43:34.634Z,15.50
2022-08-28T00:43:44.779Z,13.80
2022-08-28T00:43:54.846Z,16.10
2022-08-28T00:44:04.933Z,16.00
2022-08-28T00:44:15.025Z,15.40
2022-08-28T00:44:25.153Z,14.00
2022-08-28T00:44:35.195Z,14.50
2022-08-28T00:44:45.315Z,15.00
2022-08-28T00:44:55.411Z,14.10
2022-08-28T00:45:05.527Z,13.10
2022-08-28T00:45:15.594Z,13.90
2022-08-28T00:45:25.664Z,14.20
2022-08-28T00:45:39.552Z,13.80
2022-08-28T00:45:45.885Z,12.80
2022-08-28T00:45:55.983Z,12.80
2022-08-28T00:46:06.087Z,11.00
2022-08-28T00:46:16.240Z,11.30
2022-08-28T00:46:26.405Z,11.90
2022-08-28T00:46:36.608Z,12.60
2022-08-28T00:46:46.551Z,14.30
2022-08-28T00:46:56.661Z,13.00
2022-08-28T00:47:06.734Z,13.50
2022-08-28T00:47:16.834Z,13.40
2022-08-28T00:47:26.914Z,14.00
2022-08-28T00:47:37.014Z,17.00
2022-08-28T00:47:47.094Z,16.10
2022-08-28T00:47:57.164Z,15.50
2022-08-28T00:48:07.246Z,13.70
2022-08-28T00:48:17.333Z,13.50
2022-08-28T00:48:27.414Z,13.90
2022-08-28T00:48:37.492Z,15.90
2022-08-28T00:48:47.588Z,15.40
2022-08-28T00:48:57.584Z,14.20
2022-08-28T00:49:07.604Z,10.50
2022-08-28T00:49:17.615Z,10.50
2022-08-28T00:49:27.634Z,12.10
2022-08-28T00:49:37.651Z,13.20
2022-08-28T00:49:47.664Z,15.30
2022-08-28T00:49:57.693Z,14.50
2022-08-28T00:50:07.714Z,15.90
2022-08-28T00:50:17.814Z,16.80
2022-08-28T00:50:27.826Z,16.90
2022-08-28T00:50:37.853Z,17.30
2022-08-28T00:50:47.864Z,14.70
2022-08-28T00:51:00.619Z,14.10
2022-08-28T00:51:07.924Z,13.20
2022-08-28T00:51:17.956Z,14.20
2022-08-28T00:51:27.984Z,18.00
2022-08-28T00:51:38.004Z,18.20
2022-08-28T00:51:48.024Z,17.20
2022-08-28T00:51:58.054Z,15.80
2022-08-28T00:52:08.162Z,15.60
2022-08-28T00:52:18.334Z,17.40
2022-08-28T00:52:28.396Z,15.80
2022-08-28T00:52:38.471Z,14.00
2022-08-28T00:52:48.534Z,13.50
2022-08-28T00:52:58.624Z,12.90
2022-08-28T00:53:08.684Z,14.90
2022-08-28T00:53:18.742Z,14.00
2022-08-28T00:53:29.974Z,15.00
2022-08-28T00:53:38.894Z,12.90
2022-08-28T00:53:48.965Z,12.70
2022-08-28T00:53:59.711Z,10.40
2022-08-28T00:54:09.145Z,11.30
2022-08-28T00:54:19.233Z,12.20
2022-08-28T00:54:29.294Z,14.90
2022-08-28T00:54:39.373Z,18.90
2022-08-28T00:54:58.936Z,18.20
2022-08-28T00:55:00.413Z,16.70
2022-08-28T00:55:10.462Z,13.10
2022-08-28T00:55:20.522Z,12.60
2022-08-28T00:55:30.594Z,11.10
2022-08-28T00:55:40.683Z,12.00
2022-08-28T00:55:50.744Z,12.10
2022-08-28T00:56:00.904Z,16.30
2022-08-28T00:56:12.930Z,13.80
2022-08-28T00:56:21.093Z,12.80
2022-08-28T00:56:31.161Z,10.20
2022-08-28T00:56:41.262Z,11.80
2022-08-28T00:56:51.325Z,16.50
2022-08-28T00:57:01.434Z,15.60
2022-08-28T00:57:11.593Z,14.70
2022-08-28T00:57:21.663Z,11.00
2022-08-28T00:57:32.623Z,13.80
2022-08-28T00:57:42.692Z,12.90
2022-08-28T00:57:52.774Z,11.10
2022-08-28T00:58:02.844Z,11.20
2022-08-28T00:58:13.018Z,14.90
2022-08-28T00:58:23.057Z,15.90
2022-08-28T00:58:33.135Z,15.30
2022-08-28T00:58:43.224Z,14.10
2022-08-28T00:58:53.304Z,12.50
2022-08-28T00:59:03.373Z,11.70
2022-08-28T00:59:13.441Z,10.20
2022-08-28T00:59:23.503Z,10.80
2022-08-28T00:59:33.573Z,11.60
2022-08-28T00:59:43.634Z,13.00
2022-08-28T00:59:53.704Z,13.20
2022-08-28T01:00:03.783Z,12.00
2022-08-28T01:00:13.844Z,12.20
2022-08-28T01:00:23.924Z,11.50
2022-08-28T01:00:34.003Z,11.30
2022-08-28T01:00:44.072Z,11.20
2022-08-28T01:00:54.073Z,10.50
2022-08-28T01:01:04.145Z,12.20
2022-08-28T01:01:14.255Z,11.90
2022-08-28T01:01:24.398Z,13.70
2022-08-28T01:01:34.489Z,12.50
2022-08-28T01:01:44.648Z,11.20
2022-08-28T01:01:54.823Z,11.40
2022-08-28T01:02:04.785Z,11.80
2022-08-28T01:02:14.854Z,12.50
2022-08-28T01:02:24.991Z,11.90
2022-08-28T01:02:35.084Z,13.00
2022-08-28T01:02:45.186Z,13.10
2022-08-28T01:02:55.403Z,14.00
2022-08-28T01:03:05.421Z,12.50
2022-08-28T01:03:15.372Z,12.10
2022-08-28T01:03:26.579Z,11.90
2022-08-28T01:03:35.542Z,13.00
2022-08-28T01:03:45.601Z,13.60
2022-08-28T01:03:55.685Z,13.20
2022-08-28T01:04:05.781Z,12.10
2022-08-28T01:04:15.844Z,11.20
2022-08-28T01:04:26.011Z,11.20
2022-08-28T01:04:35.945Z,11.80
2022-08-28T01:04:46.011Z,12.60
2022-08-28T01:04:56.094Z,12.30
2022-08-28T01:05:06.166Z,14.30
2022-08-28T01:05:16.296Z,13.50
2022-08-28T01:05:26.362Z,13.00
2022-08-28T01:05:36.433Z,11.90
2022-08-28T01:05:46.503Z,12.20
2022-08-28T01:05:56.544Z,12.90
2022-08-28T01:06:06.616Z,11.70
2022-08-28T01:06:16.684Z,11.40
2022-08-28T01:06:26.754Z,11.40
2022-08-28T01:06:36.845Z,11.40
2022-08-28T01:06:46.932Z,10.30
2022-08-28T01:06:57.013Z,9.80
2022-08-28T01:07:07.114Z,11.40
2022-08-28T01:07:17.187Z,12.80
2022-08-28T01:07:27.263Z,15.50
2022-08-28T01:07:37.343Z,14.70
2022-08-28T01:07:47.444Z,13.60
2022-08-28T01:07:57.544Z,10.10
2022-08-28T01:08:07.625Z,11.20
2022-08-28T01:08:18.673Z,10.40
2022-08-28T01:08:30.347Z,11.20
2022-08-28T01:08:37.944Z,10.20
2022-08-28T01:08:50.504Z,11.40
2022-08-28T01:08:59.033Z,12.00
2022-08-28T01:09:08.152Z,11.90
2022-08-28T01:09:18.897Z,13.90
2022-08-28T01:09:28.268Z,14.10
2022-08-28T01:09:38.353Z,17.20
2022-08-28T01:09:48.414Z,14.80
2022-08-28T01:09:58.504Z,13.50
2022-08-28T01:10:08.624Z,10.90
2022-08-28T01:10:18.714Z,13.00
2022-08-28T01:10:28.805Z,14.20
2022-08-28T01:10:38.923Z,13.50
2022-08-28T01:10:48.994Z,11.30
2022-08-28T01:10:59.065Z,11.10
2022-08-28T01:11:09.144Z,12.80
2022-08-28T01:11:19.213Z,14.10
2022-08-28T01:11:29.293Z,13.80
2022-08-28T01:11:39.384Z,11.30
2022-08-28T01:11:49.492Z,9.70
2022-08-28T01:11:59.564Z,8.50
2022-08-28T01:12:09.641Z,9.70
2022-08-28T01:12:19.712Z,9.80
2022-08-28T01:12:29.799Z,10.70
2022-08-28T01:12:39.883Z,11.70
2022-08-28T01:12:50.001Z,12.20
2022-08-28T01:13:00.063Z,12.20
2022-08-28T01:13:10.173Z,11.40
2022-08-28T01:13:20.244Z,13.10
2022-08-28T01:13:30.313Z,13.20
2022-08-28T01:13:40.401Z,12.80
2022-08-28T01:13:50.464Z,12.90
2022-08-28T01:14:01.800Z,14.00
2022-08-28T01:14:10.713Z,12.70
2022-08-28T01:14:20.796Z,14.50
2022-08-28T01:14:30.903Z,13.90
2022-08-28T01:14:40.993Z,14.20
2022-08-28T01:14:50.994Z,11.90
2022-08-28T01:15:01.064Z,11.80
2022-08-28T01:15:11.144Z,11.60
2022-08-28T01:15:21.214Z,13.10
2022-08-28T01:15:31.330Z,14.40
2022-08-28T01:15:41.437Z,15.30
2022-08-28T01:15:51.611Z,15.50
2022-08-28T01:16:01.606Z,14.90
2022-08-28T01:16:11.596Z,16.90
2022-08-28T01:16:21.779Z,15.30
2022-08-28T01:16:33.931Z,13.90
2022-08-28T01:16:41.982Z,10.40
2022-08-28T01:16:52.063Z,9.90
2022-08-28T01:17:02.133Z,11.00
2022-08-28T01:17:12.214Z,12.20
2022-08-28T01:17:22.302Z,11.90
2022-08-28T01:17:32.373Z,12.00
2022-08-28T01:17:43.168Z,10.90
2022-08-28T01:17:52.624Z,11.70
2022-08-28T01:18:07.879Z,11.10
2022-08-28T01:18:13.065Z,15.80
2022-08-28T01:18:22.982Z,15.60
2022-08-28T01:18:33.062Z,17.50
2022-08-28T01:18:43.141Z,13.60
2022-08-28T01:18:53.203Z,13.60
2022-08-28T01:19:03.273Z,12.20
2022-08-28T01:19:13.353Z,16.30
2022-08-28T01:19:23.435Z,15.00
2022-08-28T01:19:33.523Z,14.80
2022-08-28T01:19:43.621Z,11.80
2022-08-28T01:19:53.724Z,12.40
2022-08-28T01:20:03.801Z,12.10
2022-08-28T01:20:13.897Z,12.50
2022-08-28T01:20:23.963Z,11.90
2022-08-28T01:20:34.052Z,11.50
2022-08-28T01:20:44.124Z,12.50
2022-08-28T01:20:54.194Z,13.60
2022-08-28T01:21:04.294Z,13.40
2022-08-28T01:21:20.118Z,12.50
2022-08-28T01:21:25.344Z,15.60
2022-08-28T01:21:35.428Z,16.50
2022-08-28T01:21:45.492Z,15.20
2022-08-28T01:21:55.574Z,15.50
2022-08-28T01:22:05.643Z,16.00
2022-08-28T01:22:15.733Z,15.70
2022-08-28T01:22:25.804Z,15.30
2022-08-28T01:22:35.925Z,14.70
2022-08-28T01:22:45.992Z,15.50
2022-08-28T01:22:56.053Z,15.20
2022-08-28T01:23:06.113Z,13.40
2022-08-28T01:23:16.184Z,13.80
2022-08-28T01:23:26.301Z,15.70
2022-08-28T01:23:36.372Z,16.80
2022-08-28T01:23:46.433Z,17.40
2022-08-28T01:23:56.503Z,14.50
2022-08-28T01:24:06.575Z,15.10
2022-08-28T01:24:16.641Z,13.30
2022-08-28T01:24:26.703Z,14.50
2022-08-28T01:24:36.778Z,13.40
2022-08-28T01:24:46.853Z,12.30
2022-08-28T01:24:56.962Z,11.10
2022-08-28T01:25:07.024Z,12.80
2022-08-28T01:25:17.113Z,13.70
2022-08-28T01:25:27.184Z,14.00
2022-08-28T01:25:37.263Z,13.40
2022-08-28T01:25:47.343Z,15.20
2022-08-28T01:25:57.403Z,16.50
2022-08-28T01:26:11.621Z,17.50
2022-08-28T01:26:17.703Z,16.60
2022-08-28T01:26:27.848Z,14.00
2022-08-28T01:26:37.895Z,16.60
2022-08-28T01:26:47.981Z,17.00
2022-08-28T01:26:58.133Z,18.40
2022-08-28T01:27:08.192Z,15.40
2022-08-28T01:27:18.261Z,13.70
2022-08-28T01:27:28.333Z,13.10
2022-08-28T01:27:38.414Z,11.80
2022-08-28T01:27:48.501Z,10.40
2022-08-28T01:27:58.588Z,11.30
2022-08-28T01:28:08.695Z,12.90
2022-08-28T01:28:18.782Z,14.90
2022-08-28T01:28:28.902Z,15.10
2022-08-28T01:28:38.912Z,13.60
2022-08-28T01:28:48.984Z,14.90
2022-08-28T01:28:59.064Z,15.90
2022-08-28T01:29:09.138Z,17.40
2022-08-28T01:29:19.224Z,15.90
2022-08-28T01:29:29.324Z,14.40
2022-08-28T01:29:42.022Z,14.20
2022-08-28T01:29:50.105Z,17.90
2022-08-28T01:30:00.237Z,19.80
2022-08-28T01:30:10.312Z,22.40
2022-08-28T01:30:20.393Z,17.60
2022-08-28T01:30:30.485Z,15.30
2022-08-28T01:30:40.563Z,13.50
2022-08-28T01:30:50.741Z,16.90
2022-08-28T01:31:00.841Z,18.00
2022-08-28T01:31:11.065Z,16.80
2022-08-28T01:31:21.208Z,12.60
2022-08-28T01:31:31.411Z,13.60
2022-08-28T01:31:41.410Z,14.50
2022-08-28T01:31:51.534Z,14.90
2022-08-28T01:32:01.624Z,14.60
2022-08-28T01:32:11.694Z,12.70
2022-08-28T01:32:21.792Z,12.90
2022-08-28T01:32:31.925Z,12.10
2022-08-28T01:32:42.003Z,12.90
2022-08-28T01:32:55.595Z,12.30
2022-08-28T01:33:05.654Z,14.60
2022-08-28T01:33:15.722Z,14.00
2022-08-28T01:33:28.291Z,18.00
2022-08-28T01:33:35.854Z,16.40
2022-08-28T01:33:45.959Z,17.80
2022-08-28T01:33:56.064Z,16.20
2022-08-28T01:34:06.124Z,16.80
2022-08-28T01:34:16.172Z,15.40
2022-08-28T01:34:26.294Z,17.00
2022-08-28T01:34:36.369Z,17.30
2022-08-28T01:34:46.443Z,17.40
2022-08-28T01:34:56.514Z,13.20
2022-08-28T01:35:06.573Z,15.00
2022-08-28T01:35:16.629Z,15.10
2022-08-28T01:35:26.706Z,15.90
2022-08-28T01:35:36.764Z,13.70
2022-08-28T01:35:46.832Z,14.80
2022-08-28T01:35:56.874Z,14.60
2022-08-28T01:36:07.008Z,15.00
2022-08-28T01:36:17.083Z,16.50
2022-08-28T01:36:27.145Z,15.40
2022-08-28T01:36:37.223Z,17.10
2022-08-28T01:36:47.294Z,15.60
2022-08-28T01:36:57.415Z,18.90
2022-08-28T01:37:07.435Z,18.10
2022-08-28T01:37:17.545Z,19.10
2022-08-28T01:37:27.602Z,21.70
2022-08-28T01:37:37.683Z,21.30
2022-08-28T01:37:47.723Z,18.90
2022-08-28T01:37:57.823Z,15.90
2022-08-28T01:38:07.884Z,18.90
2022-08-28T01:38:20.122Z,22.20
2022-08-28T01:38:28.060Z,20.70
2022-08-28T01:38:38.130Z,18.90
2022-08-28T01:38:48.224Z,15.80
2022-08-28T01:38:58.284Z,14.50
2022-08-28T01:39:08.336Z,12.90
2022-08-28T01:39:18.383Z,15.60
2022-08-28T01:39:28.443Z,16.60
2022-08-28T01:39:38.503Z,16.30
2022-08-28T01:39:48.554Z,15.00
2022-08-28T01:39:58.669Z,15.70
2022-08-28T01:40:08.796Z,16.00
2022-08-28T01:40:18.830Z,17.10
2022-08-28T01:40:28.970Z,15.60
2022-08-28T01:40:39.068Z,16.90
2022-08-28T01:40:49.106Z,14.70
2022-08-28T01:40:59.152Z,14.30
2022-08-28T01:41:09.173Z,17.40
2022-08-28T01:41:19.243Z,17.00
2022-08-28T01:41:29.275Z,21.30
2022-08-28T01:41:39.324Z,19.20
2022-08-28T01:41:49.362Z,21.90
2022-08-28T01:41:59.485Z,18.40
2022-08-28T01:42:09.522Z,20.40
2022-08-28T01:42:19.561Z,19.80
2022-08-28T01:42:29.615Z,19.00
2022-08-28T01:42:39.703Z,15.50
2022-08-28T01:42:49.744Z,17.90
2022-08-28T01:42:59.802Z,18.00
2022-08-28T01:43:09.853Z,18.70
2022-08-28T01:43:19.903Z,16.80
2022-08-28T01:43:29.943Z,17.80
2022-08-28T01:43:40.004Z,17.70
2022-08-28T01:43:50.044Z,15.70
2022-08-28T01:44:00.120Z,17.10
2022-08-28T01:44:10.173Z,17.50
2022-08-28T01:44:20.234Z,19.30
2022-08-28T01:44:30.285Z,18.40
2022-08-28T01:44:40.351Z,17.60
2022-08-28T01:44:50.423Z,17.30
2022-08-28T01:45:00.514Z,16.10
2022-08-28T01:45:10.664Z,17.30
2022-08-28T01:45:20.715Z,17.90
2022-08-28T01:45:30.764Z,18.00
2022-08-28T01:45:40.922Z,17.40
2022-08-28T01:45:51.016Z,15.60
2022-08-28T01:46:01.219Z,15.80
2022-08-28T01:46:11.174Z,16.00
2022-08-28T01:46:21.308Z,17.80
2022-08-28T01:46:31.423Z,18.40
2022-08-28T01:46:41.505Z,18.80
2022-08-28T01:46:51.544Z,20.70
2022-08-28T01:47:01.613Z,21.10
2022-08-28T01:47:11.684Z,20.30
2022-08-28T01:47:21.731Z,17.60
2022-08-28T01:47:31.794Z,15.80
2022-08-28T01:47:41.844Z,14.20
2022-08-28T01:47:51.943Z,14.20
2022-08-28T01:48:02.012Z,15.20
2022-08-28T01:48:12.240Z,16.30
2022-08-28T01:48:22.194Z,17.40
2022-08-28T01:48:32.262Z,20.90
2022-08-28T01:48:42.331Z,21.30
2022-08-28T01:48:52.384Z,21.30
2022-08-28T01:49:02.592Z,17.20
2022-08-28T01:49:12.514Z,18.70
2022-08-28T01:49:22.571Z,19.10
2022-08-28T01:49:32.633Z,19.50
2022-08-28T01:49:42.703Z,19.10
2022-08-28T01:49:52.783Z,17.80
2022-08-28T01:50:02.909Z,17.80
2022-08-28T01:50:12.935Z,16.50
2022-08-28T01:50:23.033Z,17.00
2022-08-28T01:50:33.092Z,17.90
2022-08-28T01:50:43.153Z,18.70
2022-08-28T01:50:53.251Z,20.30
2022-08-28T01:51:03.373Z,19.10
2022-08-28T01:51:13.423Z,20.30
2022-08-28T01:51:24.741Z,19.30
2022-08-28T01:51:35.189Z,19.80
2022-08-28T01:51:43.603Z,18.90
2022-08-28T01:51:54.831Z,17.80
2022-08-28T01:52:03.774Z,17.40
2022-08-28T01:52:13.841Z,18.70
2022-08-28T01:52:24.116Z,19.10
2022-08-28T01:52:34.036Z,19.40
2022-08-28T01:52:44.197Z,17.30
2022-08-28T01:52:54.244Z,18.90
2022-08-28T01:53:04.393Z,20.90
2022-08-28T01:53:14.659Z,23.20
2022-08-28T01:53:24.808Z,21.40
2022-08-28T01:53:34.745Z,21.70
2022-08-28T01:53:45.198Z,20.10
2022-08-28T01:53:54.966Z,22.20
2022-08-28T01:54:05.013Z,19.70
2022-08-28T01:54:15.072Z,21.50
2022-08-28T01:54:25.193Z,21.80
2022-08-28T01:54:35.366Z,20.90
2022-08-28T01:54:45.496Z,20.20
2022-08-28T01:54:57.493Z,18.80
2022-08-28T01:55:05.564Z,19.50
2022-08-28T01:55:15.564Z,17.60
2022-08-28T01:55:26.567Z,17.90
2022-08-28T01:55:36.645Z,17.70
2022-08-28T01:55:46.675Z,19.40
2022-08-28T01:55:56.726Z,19.70
2022-08-28T01:56:06.756Z,21.70
2022-08-28T01:56:16.786Z,23.90
2022-08-28T01:56:26.803Z,22.60
2022-08-28T01:56:36.823Z,21.30
2022-08-28T01:56:46.854Z,18.20
2022-08-28T01:56:56.884Z,19.50
2022-08-28T01:57:06.915Z,20.40
2022-08-28T01:57:16.931Z,18.30
2022-08-28T01:57:27.093Z,19.00
2022-08-28T01:57:37.114Z,18.70
2022-08-28T01:57:47.163Z,19.90
2022-08-28T01:57:57.200Z,18.80
2022-08-28T01:58:07.213Z,19.70
2022-08-28T01:58:17.265Z,20.80
2022-08-28T01:58:27.291Z,21.30
2022-08-28T01:58:38.460Z,22.40
2022-08-28T01:58:47.453Z,22.00
2022-08-28T01:58:57.505Z,24.70
2022-08-28T01:59:07.543Z,22.40
2022-08-28T01:59:17.585Z,23.10
2022-08-28T01:59:27.609Z,22.10
2022-08-28T01:59:37.613Z,22.00
2022-08-28T01:59:47.634Z,24.20
2022-08-28T01:59:57.663Z,22.70
2022-08-28T02:00:07.692Z,22.00
2022-08-28T02:00:17.693Z,19.50
2022-08-28T02:00:27.732Z,19.70
2022-08-28T02:00:37.753Z,19.00
2022-08-28T02:00:47.792Z,18.40
2022-08-28T02:00:57.904Z,20.10
2022-08-28T02:01:07.924Z,20.30
2022-08-28T02:01:18.011Z,20.70
2022-08-28T02:01:28.102Z,18.20
2022-08-28T02:01:38.167Z,20.20
2022-08-28T02:01:48.233Z,20.00
2022-08-28T02:01:58.309Z,19.20
2022-08-28T02:02:08.356Z,18.40
2022-08-28T02:02:18.365Z,18.70
2022-08-28T02:02:28.393Z,18.70
2022-08-28T02:02:38.420Z,19.80
2022-08-28T02:02:48.484Z,19.60
2022-08-28T02:02:58.573Z,18.70
2022-08-28T02:03:08.603Z,22.10
2022-08-28T02:03:18.643Z,22.60
2022-08-28T02:03:28.663Z,22.80
2022-08-28T02:03:38.697Z,19.50
2022-08-28T02:03:48.766Z,20.30
2022-08-28T02:03:58.946Z,20.20
2022-08-28T02:04:09.030Z,20.50
2022-08-28T02:04:19.117Z,18.50
2022-08-28T02:04:29.621Z,21.60
2022-08-28T02:04:39.331Z,21.70
2022-08-28T02:04:49.420Z,21.40
2022-08-28T02:04:59.444Z,20.00
2022-08-28T02:05:09.471Z,19.70
2022-08-28T02:05:19.484Z,21.30
2022-08-28T02:05:29.496Z,20.40
2022-08-28T02:05:39.511Z,19.20
2022-08-28T02:05:49.531Z,18.60
2022-08-28T02:05:59.562Z,21.20
2022-08-28T02:06:09.645Z,22.30
2022-08-28T02:06:19.744Z,23.10
2022-08-28T02:06:29.764Z,19.80
2022-08-28T02:06:39.792Z,20.70
2022-08-28T02:06:49.866Z,19.10
2022-08-28T02:06:59.884Z,20.50
2022-08-28T02:07:09.903Z,19.50
2022-08-28T02:07:19.935Z,19.20
2022-08-28T02:07:29.993Z,19.40
2022-08-28T02:07:40.013Z,19.00
2022-08-28T02:07:50.043Z,20.00
2022-08-28T02:08:00.095Z,22.70
2022-08-28T02:08:10.256Z,23.10
2022-08-28T02:08:20.187Z,22.30
2022-08-28T02:08:30.214Z,18.70
2022-08-28T02:08:40.243Z,18.70
2022-08-28T02:08:50.285Z,18.80
2022-08-28T02:09:00.321Z,18.30
2022-08-28T02:09:14.649Z,18.60
2022-08-28T02:09:20.423Z,21.10
2022-08-28T02:09:30.482Z,27.60
2022-08-28T02:09:40.514Z,27.70
2022-08-28T02:09:50.573Z,27.20
2022-08-28T02:10:00.624Z,23.10